createdAt,value
2018-05-25T00:00:42.827Z,4.00
2018-05-25T00:01:42.846Z,4.00
2018-05-25T00:02:42.871Z,4.00
2018-05-25T00:03:42.894Z,4.00
2018-05-25T00:04:42.921Z,4.00
2018-05-25T00:05:42.940Z,4.00
2018-05-25T00:06:42.963Z,4.00
2018-05-25T00:07:42.986Z,4.00
2018-05-25T00:08:43.008Z,4.00
2018-05-25T00:09:43.033Z,4.00
2018-05-25T00:10:43.056Z,4.00
2018-05-25T00:11:43.079Z,4.00
2018-05-25T00:12:43.102Z,4.00
2018-05-25T00:13:43.126Z,4.00
2018-05-25T00:14:43.150Z,4.00
2018-05-25T00:15:43.172Z,4.00
2018-05-25T00:16:43.194Z,4.00
2018-05-25T00:17:43.219Z,4.00
2018-05-25T00:18:43.245Z,4.00
2018-05-25T00:19:43.265Z,4.00
2018-05-25T00:20:43.288Z,4.00
2018-05-25T00:21:43.312Z,4.00
2018-05-25T00:22:43.334Z,4.00
2018-05-25T00:23:43.357Z,4.00
2018-05-25T00:24:43.411Z,4.00
2018-05-25T00:25:43.402Z,4.00
2018-05-25T00:26:43.427Z,4.00
2018-05-25T00:27:43.450Z,4.00
2018-05-25T00:28:43.472Z,4.00
2018-05-25T00:29:43.496Z,4.00
2018-05-25T00:30:43.519Z,4.00
2018-05-25T00:31:43.542Z,4.00
2018-05-25T00:32:43.564Z,4.00
2018-05-25T00:33:43.588Z,4.00
2018-05-25T00:34:43.610Z,4.00
2018-05-25T00:35:43.634Z,4.00
2018-05-25T00:36:43.657Z,4.00
2018-05-25T00:37:43.680Z,4.00
2018-05-25T00:38:43.708Z,4.00
2018-05-25T00:39:43.726Z,4.00
2018-05-25T00:40:43.749Z,4.00
2018-05-25T00:41:43.773Z,4.00
2018-05-25T00:42:43.795Z,4.00
2018-05-25T00:43:43.870Z,4.00
2018-05-25T00:44:43.841Z,4.00
2018-05-25T00:45:43.864Z,4.00
2018-05-25T00:46:43.887Z,4.00
2018-05-25T00:47:43.912Z,4.00
2018-05-25T00:48:43.933Z,4.00
2018-05-25T00:49:43.957Z,4.00
2018-05-25T00:50:43.979Z,4.00
2018-05-25T00:51:44.003Z,4.00
2018-05-25T00:52:44.029Z,4.00
2018-05-25T00:53:44.048Z,4.00
2018-05-25T00:54:44.072Z,4.00
2018-05-25T00:55:44.093Z,4.00
2018-05-25T00:56:44.117Z,4.00
2018-05-25T00:57:44.141Z,4.00
2018-05-25T00:58:44.165Z,4.00
2018-05-25T00:59:44.187Z,4.00
2018-05-25T01:00:44.213Z,4.00
2018-05-25T01:01:44.233Z,4.00
2018-05-25T01:02:44.257Z,4.00
2018-05-25T01:03:44.284Z,4.00
2018-05-25T01:04:44.344Z,4.00
2018-05-25T01:05:44.326Z,4.00
2018-05-25T01:06:44.348Z,4.00
2018-05-25T01:07:44.379Z,4.00
2018-05-25T01:08:44.395Z,4.00
2018-05-25T01:09:44.417Z,4.00
2018-05-25T01:10:44.440Z,4.00
2018-05-25T01:11:44.463Z,4.00
2018-05-25T01:12:44.486Z,4.00
2018-05-25T01:13:44.509Z,4.00
2018-05-25T01:14:44.532Z,4.00
2018-05-25T01:15:44.556Z,4.00
2018-05-25T01:16:44.577Z,4.00
2018-05-25T01:17:44.601Z,4.00
2018-05-25T01:18:44.624Z,4.00
2018-05-25T01:19:44.648Z,4.00
2018-05-25T01:20:44.670Z,4.00
2018-05-25T01:21:44.697Z,4.00
2018-05-25T01:22:44.716Z,4.00
2018-05-25T01:23:44.739Z,4.00
2018-05-25T01:24:44.762Z,4.00
2018-05-25T01:25:44.784Z,4.00
2018-05-25T01:26:44.808Z,4.00
2018-05-25T01:27:44.832Z,4.00
2018-05-25T01:28:44.853Z,4.00
2018-05-25T01:29:44.877Z,4.00
2018-05-25T01:30:44.900Z,4.00
2018-05-25T01:31:44.924Z,4.00
2018-05-25T01:32:44.946Z,4.00
2018-05-25T01:33:44.969Z,4.00
2018-05-25T01:34:44.991Z,4.00
2018-05-25T01:35:45.017Z,4.00
2018-05-25T01:36:45.039Z,4.00
2018-05-25T01:37:45.061Z,4.00
2018-05-25T01:38:45.085Z,4.00
2018-05-25T01:39:45.109Z,4.00
2018-05-25T01:40:45.130Z,4.00
2018-05-25T01:41:45.154Z,4.00
2018-05-25T01:42:45.177Z,4.00
2018-05-25T01:43:45.204Z,4.00
2018-05-25T01:44:45.222Z,4.00
2018-05-25T01:45:45.245Z,4.00
2018-05-25T01:46:45.268Z,4.00
2018-05-25T01:47:45.292Z,4.00
2018-05-25T01:48:45.314Z,4.00
2018-05-25T01:49:45.337Z,4.00
2018-05-25T01:50:45.360Z,4.00
2018-05-25T01:51:45.383Z,4.00
2018-05-25T01:52:45.406Z,4.00
2018-05-25T01:53:45.428Z,4.00
2018-05-25T01:54:45.452Z,4.00
2018-05-25T01:55:45.478Z,4.00
2018-05-25T01:56:45.497Z,4.00
2018-05-25T01:57:45.524Z,4.00
2018-05-25T01:58:45.548Z,4.00
2018-05-25T01:59:45.566Z,4.00
2018-05-25T02:00:45.589Z,4.00
2018-05-25T02:01:45.612Z,4.00
2018-05-25T02:02:45.635Z,4.00
2018-05-25T02:03:45.658Z,4.00
2018-05-25T02:04:45.681Z,4.00
2018-05-25T02:05:45.705Z,4.00
2018-05-25T02:06:45.728Z,4.00
2018-05-25T02:07:45.750Z,4.00
2018-05-25T02:08:45.773Z,4.00
2018-05-25T02:09:45.795Z,4.00
2018-05-25T02:10:45.818Z,4.00
2018-05-25T02:11:45.841Z,4.00
2018-05-25T02:12:45.865Z,4.00
2018-05-25T02:13:45.887Z,4.00
2018-05-25T02:14:45.910Z,4.00
2018-05-25T02:15:45.933Z,4.00
2018-05-25T02:16:46.006Z,4.00
2018-05-25T02:17:45.980Z,4.00
2018-05-25T02:18:46.002Z,4.00
2018-05-25T02:19:46.026Z,4.00
2018-05-25T02:20:46.048Z,4.00
2018-05-25T02:21:46.072Z,4.00
2018-05-25T02:22:46.093Z,4.00
2018-05-25T02:23:46.115Z,4.00
2018-05-25T02:24:46.140Z,4.00
2018-05-25T02:25:46.162Z,4.00
2018-05-25T02:26:46.185Z,4.00
2018-05-25T02:27:46.208Z,4.00
2018-05-25T02:28:46.231Z,4.00
2018-05-25T02:29:46.253Z,4.00
2018-05-25T02:30:46.275Z,4.00
2018-05-25T02:31:46.298Z,4.00
2018-05-25T02:32:46.322Z,4.00
2018-05-25T02:33:46.344Z,4.00
2018-05-25T02:34:46.368Z,4.00
2018-05-25T02:35:46.389Z,4.00
2018-05-25T02:36:46.412Z,4.00
2018-05-25T02:37:46.446Z,4.00
2018-05-25T02:38:46.459Z,4.00
2018-05-25T02:39:46.482Z,4.00
2018-05-25T02:40:46.502Z,4.00
2018-05-25T02:41:46.527Z,4.00
2018-05-25T02:42:46.551Z,8.00
2018-05-25T02:43:46.572Z,8.00
2018-05-25T02:44:46.594Z,8.00
2018-05-25T02:45:46.617Z,8.00
2018-05-25T02:46:46.640Z,4.00
2018-05-25T02:47:46.663Z,4.00
2018-05-25T02:48:46.685Z,4.00
2018-05-25T02:49:46.708Z,8.00
2018-05-25T02:50:46.733Z,8.00
2018-05-25T02:51:46.759Z,4.00
2018-05-25T02:52:46.780Z,8.00
2018-05-25T02:53:46.801Z,8.00
2018-05-25T02:54:46.822Z,8.00
2018-05-25T02:55:46.848Z,8.00
2018-05-25T02:56:46.871Z,12.00
2018-05-25T02:57:46.890Z,8.00
2018-05-25T02:58:46.913Z,12.00
2018-05-25T02:59:46.936Z,12.00
2018-05-25T03:00:46.958Z,12.00
2018-05-25T03:01:46.980Z,12.00
2018-05-25T03:02:47.004Z,16.00
2018-05-25T03:03:47.028Z,12.00
2018-05-25T03:04:47.050Z,12.00
2018-05-25T03:05:47.073Z,16.00
2018-05-25T03:06:47.098Z,20.00
2018-05-25T03:07:47.120Z,24.00
2018-05-25T03:08:47.142Z,24.00
2018-05-25T03:09:47.163Z,32.00
2018-05-25T03:10:47.186Z,32.00
2018-05-25T03:11:47.210Z,36.00
2018-05-25T03:12:47.235Z,40.00
2018-05-25T03:13:47.253Z,48.00
2018-05-25T03:14:47.278Z,52.00
2018-05-25T03:15:47.304Z,56.00
2018-05-25T03:16:47.325Z,64.00
2018-05-25T03:17:47.345Z,68.00
2018-05-25T03:18:47.371Z,72.00
2018-05-25T03:19:47.392Z,80.00
2018-05-25T03:20:47.412Z,88.00
2018-05-25T03:21:47.435Z,92.00
2018-05-25T03:22:47.457Z,100.00
2018-05-25T03:23:47.479Z,108.00
2018-05-25T03:24:47.503Z,116.00
2018-05-25T03:25:47.525Z,124.00
2018-05-25T03:26:47.547Z,136.00
2018-05-25T03:27:47.570Z,148.00
2018-05-25T03:28:47.593Z,160.00
2018-05-25T03:29:47.615Z,168.00
2018-05-25T03:30:47.644Z,184.00
2018-05-25T03:31:47.661Z,196.00
2018-05-25T03:32:47.683Z,212.00
2018-05-25T03:33:47.706Z,228.00
2018-05-25T03:34:47.733Z,248.00
2018-05-25T03:35:47.751Z,268.00
2018-05-25T03:36:47.772Z,288.00
2018-05-25T03:37:47.796Z,308.00
2018-05-25T03:38:47.819Z,328.00
2018-05-25T03:39:47.841Z,352.00
2018-05-25T03:40:47.863Z,376.00
2018-05-25T03:41:47.887Z,396.00
2018-05-25T03:42:47.909Z,420.00
2018-05-25T03:43:47.931Z,448.00
2018-05-25T03:44:47.953Z,472.00
2018-05-25T03:45:47.977Z,492.00
2018-05-25T03:46:48.000Z,512.00
2018-05-25T03:47:48.022Z,528.00
2018-05-25T03:48:48.093Z,544.00
2018-05-25T03:49:48.067Z,552.00
2018-05-25T03:50:48.089Z,564.00
2018-05-25T03:51:48.113Z,564.00
2018-05-25T03:52:48.134Z,560.00
2018-05-25T03:53:48.161Z,544.00
2018-05-25T03:54:48.180Z,524.00
2018-05-25T03:55:48.206Z,500.00
2018-05-25T03:56:48.225Z,480.00
2018-05-25T03:57:48.247Z,448.00
2018-05-25T03:58:48.270Z,432.00
2018-05-25T03:59:48.299Z,416.00
2018-05-25T04:00:48.314Z,400.00
2018-05-25T04:01:48.337Z,384.00
2018-05-25T04:02:48.360Z,372.00
2018-05-25T04:03:48.383Z,368.00
2018-05-25T04:04:48.405Z,368.00
2018-05-25T04:05:48.428Z,368.00
2018-05-25T04:06:48.451Z,372.00
2018-05-25T04:07:48.475Z,376.00
2018-05-25T04:08:48.495Z,384.00
2018-05-25T04:09:48.518Z,388.00
2018-05-25T04:10:48.543Z,396.00
2018-05-25T04:11:48.564Z,400.00
2018-05-25T04:12:48.587Z,404.00
2018-05-25T04:13:48.609Z,396.00
2018-05-25T04:14:48.632Z,396.00
2018-05-25T04:15:48.655Z,396.00
2018-05-25T04:16:48.676Z,400.00
2018-05-25T04:17:48.700Z,404.00
2018-05-25T04:18:48.722Z,400.00
2018-05-25T04:19:48.748Z,400.00
2018-05-25T04:20:48.768Z,404.00
2018-05-25T04:21:48.790Z,412.00
2018-05-25T04:22:48.815Z,424.00
2018-05-25T04:23:48.839Z,440.00
2018-05-25T04:24:48.863Z,460.00
2018-05-25T04:25:48.881Z,480.00
2018-05-25T04:26:48.904Z,488.00
2018-05-25T04:27:48.929Z,504.00
2018-05-25T04:28:48.949Z,528.00
2018-05-25T04:29:48.978Z,552.00
2018-05-25T04:30:48.996Z,568.00
2018-05-25T04:31:49.018Z,584.00
2018-05-25T04:32:49.040Z,592.00
2018-05-25T04:33:49.066Z,596.00
2018-05-25T04:34:49.086Z,596.00
2018-05-25T04:35:49.109Z,600.00
2018-05-25T04:36:49.131Z,604.00
2018-05-25T04:37:49.154Z,600.00
2018-05-25T04:38:49.176Z,596.00
2018-05-25T04:39:49.199Z,588.00
2018-05-25T04:40:49.223Z,588.00
2018-05-25T04:41:49.247Z,596.00
2018-05-25T04:42:49.268Z,608.00
2018-05-25T04:43:49.291Z,624.00
2018-05-25T04:44:49.315Z,648.00
2018-05-25T04:45:49.336Z,684.00
2018-05-25T04:46:49.359Z,712.00
2018-05-25T04:47:49.382Z,752.00
2018-05-25T04:48:49.404Z,784.00
2018-05-25T04:49:49.428Z,816.00
2018-05-25T04:50:49.449Z,848.00
2018-05-25T04:51:49.473Z,876.00
2018-05-25T04:52:49.496Z,904.00
2018-05-25T04:53:49.519Z,932.00
2018-05-25T04:54:49.541Z,952.00
2018-05-25T04:55:49.567Z,972.00
2018-05-25T04:56:49.591Z,980.00
2018-05-25T04:57:49.609Z,980.00
2018-05-25T04:58:49.643Z,976.00
2018-05-25T04:59:49.655Z,980.00
2018-05-25T05:00:49.677Z,988.00
2018-05-25T05:01:49.699Z,1012.00
2018-05-25T05:02:49.726Z,1040.00
2018-05-25T05:03:49.847Z,1060.00
2018-05-25T05:04:49.769Z,1076.00
2018-05-25T05:05:49.794Z,1080.00
2018-05-25T05:06:49.864Z,1080.00
2018-05-25T05:07:49.838Z,1076.00
2018-05-25T05:08:49.860Z,1072.00
2018-05-25T05:09:49.882Z,1076.00
2018-05-25T05:10:49.906Z,1076.00
2018-05-25T05:11:49.930Z,1076.00
2018-05-25T05:12:49.952Z,1080.00
2018-05-25T05:13:49.974Z,1088.00
2018-05-25T05:14:50.055Z,1092.00
2018-05-25T05:15:50.020Z,1104.00
2018-05-25T05:16:50.042Z,1112.00
2018-05-25T05:17:50.065Z,1120.00
2018-05-25T05:18:50.090Z,1136.00
2018-05-25T05:19:50.112Z,1148.00
2018-05-25T05:20:50.134Z,1168.00
2018-05-25T05:21:50.157Z,1184.00
2018-05-25T05:22:50.181Z,1200.00
2018-05-25T05:23:50.204Z,1208.00
2018-05-25T05:24:50.226Z,1212.00
2018-05-25T05:25:50.249Z,1208.00
2018-05-25T05:26:50.272Z,1184.00
2018-05-25T05:27:50.295Z,1168.00
2018-05-25T05:28:50.317Z,1144.00
2018-05-25T05:29:50.341Z,1120.00
2018-05-25T05:30:50.401Z,1100.00
2018-05-25T05:31:50.388Z,1080.00
2018-05-25T05:32:50.410Z,1084.00
2018-05-25T05:33:50.434Z,1088.00
2018-05-25T05:34:50.459Z,1108.00
2018-05-25T05:35:50.479Z,1132.00
2018-05-25T05:36:50.507Z,1164.00
2018-05-25T05:37:50.525Z,1192.00
2018-05-25T05:38:50.548Z,1220.00
2018-05-25T05:39:50.574Z,1244.00
2018-05-25T05:40:50.652Z,1272.00
2018-05-25T05:41:50.618Z,1324.00
2018-05-25T05:42:50.640Z,1400.00
2018-05-25T05:43:50.665Z,1496.00
2018-05-25T05:44:50.686Z,1620.00
2018-05-25T05:45:50.710Z,1756.00
2018-05-25T05:46:50.734Z,1908.00
2018-05-25T05:47:50.756Z,2076.00
2018-05-25T05:48:50.779Z,2244.00
2018-05-25T05:49:50.802Z,2412.00
2018-05-25T05:50:50.859Z,2576.00
2018-05-25T05:51:50.849Z,2732.00
2018-05-25T05:52:50.871Z,2872.00
2018-05-25T05:53:50.895Z,3000.00
2018-05-25T05:54:50.919Z,3100.00
2018-05-25T05:55:50.943Z,3176.00
2018-05-25T05:56:50.964Z,3224.00
2018-05-25T05:57:50.987Z,3264.00
2018-05-25T05:58:51.011Z,3284.00
2018-05-25T05:59:51.036Z,3296.00
2018-05-25T06:00:51.058Z,3304.00
2018-05-25T06:01:51.082Z,3320.00
2018-05-25T06:02:51.106Z,3324.00
2018-05-25T06:03:51.129Z,3332.00
2018-05-25T06:04:51.152Z,3304.00
2018-05-25T06:05:51.176Z,3284.00
2018-05-25T06:06:51.199Z,3256.00
2018-05-25T06:07:51.224Z,3248.00
2018-05-25T06:08:51.245Z,3236.00
2018-05-25T06:09:51.269Z,3256.00
2018-05-25T06:10:51.293Z,3288.00
2018-05-25T06:11:51.317Z,3332.00
2018-05-25T06:12:51.340Z,3376.00
2018-05-25T06:13:51.367Z,3432.00
2018-05-25T06:14:51.389Z,3476.00
2018-05-25T06:15:51.411Z,3548.00
2018-05-25T06:16:51.434Z,3608.00
2018-05-25T06:17:51.459Z,3708.00
2018-05-25T06:18:51.481Z,3856.00
2018-05-25T06:19:51.506Z,3968.00
2018-05-25T06:20:51.529Z,4148.00
2018-05-25T06:21:51.553Z,4268.00
2018-05-25T06:22:51.581Z,4412.00
2018-05-25T06:23:51.602Z,4464.00
2018-05-25T06:24:51.623Z,4504.00
2018-05-25T06:25:51.649Z,4576.00
2018-05-25T06:26:51.672Z,4732.00
2018-05-25T06:27:51.696Z,4740.00
2018-05-25T06:28:51.720Z,4564.00
2018-05-25T06:29:51.744Z,4544.00
2018-05-25T06:30:51.769Z,4536.00
2018-05-25T06:31:51.791Z,4548.00
2018-05-25T06:32:51.814Z,4576.00
2018-05-25T06:33:51.844Z,4616.00
2018-05-25T06:34:51.881Z,4644.00
2018-05-25T06:35:51.889Z,4692.00
2018-05-25T06:36:51.912Z,4744.00
2018-05-25T06:37:51.936Z,4796.00
2018-05-25T06:38:51.961Z,4864.00
2018-05-25T06:39:51.984Z,4936.00
2018-05-25T06:40:52.008Z,5024.00
2018-05-25T06:41:52.032Z,5100.00
2018-05-25T06:42:52.057Z,5256.00
2018-05-25T06:43:52.084Z,5424.00
2018-05-25T06:44:52.106Z,5616.00
2018-05-25T06:45:52.131Z,5756.00
2018-05-25T06:46:52.153Z,5828.00
2018-05-25T06:47:52.178Z,5648.00
2018-05-25T06:48:52.202Z,5528.00
2018-05-25T06:49:52.234Z,5444.00
2018-05-25T06:50:52.252Z,5400.00
2018-05-25T06:51:52.276Z,5616.00
2018-05-25T06:52:52.299Z,6280.00
2018-05-25T06:53:52.325Z,6504.00
2018-05-25T06:54:52.351Z,7016.00
2018-05-25T06:55:52.374Z,6092.00
2018-05-25T06:56:52.398Z,6104.00
2018-05-25T06:57:52.459Z,6284.00
2018-05-25T06:58:52.448Z,7324.00
2018-05-25T06:59:52.472Z,7068.00
2018-05-25T07:00:52.497Z,7096.00
2018-05-25T07:01:52.523Z,7316.00
2018-05-25T07:02:52.547Z,6916.00
2018-05-25T07:03:52.606Z,6648.00
2018-05-25T07:04:52.597Z,6332.00
2018-05-25T07:05:52.824Z,7984.00
2018-05-25T07:06:52.648Z,8088.00
2018-05-25T07:07:52.673Z,8424.00
2018-05-25T07:08:52.697Z,8132.00
2018-05-25T07:09:52.724Z,8232.00
2018-05-25T07:10:52.799Z,7672.00
2018-05-25T07:11:52.775Z,8012.00
2018-05-25T07:12:52.799Z,7540.00
2018-05-25T07:13:52.825Z,6704.00
2018-05-25T07:14:52.850Z,6296.00
2018-05-25T07:15:52.877Z,5924.00
2018-05-25T07:16:52.902Z,6956.00
2018-05-25T07:17:52.928Z,7376.00
2018-05-25T07:18:52.955Z,6736.00
2018-05-25T07:19:52.984Z,6524.00
2018-05-25T07:20:53.007Z,6784.00
2018-05-25T07:21:53.032Z,6388.00
2018-05-25T07:22:53.059Z,6420.00
2018-05-25T07:23:53.085Z,5656.00
2018-05-25T07:24:53.111Z,6564.00
2018-05-25T07:25:53.138Z,6532.00
2018-05-25T07:26:53.226Z,6316.00
2018-05-25T07:27:53.193Z,5688.00
2018-05-25T07:28:53.218Z,5596.00
2018-05-25T07:29:53.244Z,5320.00
2018-05-25T07:30:53.271Z,5608.00
2018-05-25T07:31:53.299Z,5372.00
2018-05-25T07:32:53.324Z,5372.00
2018-05-25T07:33:53.350Z,5232.00
2018-05-25T07:34:53.378Z,5072.00
2018-05-25T07:35:53.406Z,5016.00
2018-05-25T07:36:53.430Z,4744.00
2018-05-25T07:37:53.459Z,4252.00
2018-05-25T07:38:53.492Z,4472.00
2018-05-25T07:39:53.513Z,5392.00
2018-05-25T07:40:53.538Z,5336.00
2018-05-25T07:41:53.565Z,5988.00
2018-05-25T07:42:53.592Z,4676.00
2018-05-25T07:43:53.618Z,4320.00
2018-05-25T07:44:53.745Z,4664.00
2018-05-25T07:45:53.670Z,6004.00
2018-05-25T07:46:53.703Z,6652.00
2018-05-25T07:47:53.725Z,6020.00
2018-05-25T07:48:53.752Z,6212.00
2018-05-25T07:49:53.778Z,6576.00
2018-05-25T07:50:53.809Z,6912.00
2018-05-25T07:51:53.832Z,6576.00
2018-05-25T07:52:53.858Z,7060.00
2018-05-25T07:53:53.886Z,7324.00
2018-05-25T07:54:53.911Z,8024.00
2018-05-25T07:55:53.942Z,8096.00
2018-05-25T07:56:53.965Z,7784.00
2018-05-25T07:57:53.995Z,7156.00
2018-05-25T07:58:54.070Z,6816.00
2018-05-25T07:59:54.048Z,6256.00
2018-05-25T08:00:54.074Z,5996.00
2018-05-25T08:01:54.100Z,5700.00
2018-05-25T08:02:54.129Z,6100.00
2018-05-25T08:03:54.155Z,5880.00
2018-05-25T08:04:54.181Z,5660.00
2018-05-25T08:05:54.207Z,6172.00
2018-05-25T08:06:54.237Z,6312.00
2018-05-25T08:07:54.261Z,6360.00
2018-05-25T08:08:54.290Z,6324.00
2018-05-25T08:09:54.314Z,6368.00
2018-05-25T08:10:54.345Z,6356.00
2018-05-25T08:11:54.376Z,6076.00
2018-05-25T08:12:54.393Z,6256.00
2018-05-25T08:13:54.423Z,6264.00
2018-05-25T08:14:54.452Z,6156.00
2018-05-25T08:15:54.475Z,6404.00
2018-05-25T08:16:54.501Z,6344.00
2018-05-25T08:17:54.527Z,6348.00
2018-05-25T08:18:54.555Z,6340.00
2018-05-25T08:19:54.580Z,6316.00
2018-05-25T08:20:54.609Z,6276.00
2018-05-25T08:21:54.731Z,6240.00
2018-05-25T08:22:54.660Z,6200.00
2018-05-25T08:23:54.690Z,6892.00
2018-05-25T08:24:54.711Z,6632.00
2018-05-25T08:25:54.740Z,6692.00
2018-05-25T08:26:54.769Z,6716.00
2018-05-25T08:27:54.792Z,6792.00
2018-05-25T08:28:54.819Z,6716.00
2018-05-25T08:29:54.852Z,6616.00
2018-05-25T08:30:54.873Z,6712.00
2018-05-25T08:31:54.898Z,6688.00
2018-05-25T08:32:54.926Z,6664.00
2018-05-25T08:33:54.952Z,6448.00
2018-05-25T08:34:54.979Z,6572.00
2018-05-25T08:35:55.009Z,6528.00
2018-05-25T08:36:55.032Z,6600.00
2018-05-25T08:37:55.061Z,6496.00
2018-05-25T08:38:55.092Z,6460.00
2018-05-25T08:39:55.113Z,6616.00
2018-05-25T08:40:55.139Z,5988.00
2018-05-25T08:41:55.165Z,6136.00
2018-05-25T08:42:55.192Z,6028.00
2018-05-25T08:43:55.219Z,4976.00
2018-05-25T08:44:55.245Z,4300.00
2018-05-25T08:45:55.272Z,4520.00
2018-05-25T08:46:55.301Z,4972.00
2018-05-25T08:47:55.327Z,5384.00
2018-05-25T08:48:55.352Z,5628.00
2018-05-25T08:49:55.382Z,5572.00
2018-05-25T08:50:55.405Z,5568.00
2018-05-25T08:51:55.436Z,5672.00
2018-05-25T08:52:55.458Z,5856.00
2018-05-25T08:53:55.485Z,5812.00
2018-05-25T08:54:55.512Z,5732.00
2018-05-25T08:55:55.539Z,5704.00
2018-05-25T08:56:55.566Z,5688.00
2018-05-25T08:57:55.592Z,5660.00
2018-05-25T08:58:55.618Z,5692.00
2018-05-25T08:59:55.646Z,5740.00
2018-05-25T09:00:55.671Z,5668.00
2018-05-25T09:01:55.699Z,5612.00
2018-05-25T09:02:55.725Z,5664.00
2018-05-25T09:03:55.752Z,5636.00
2018-05-25T09:04:55.781Z,5708.00
2018-05-25T09:05:55.806Z,5480.00
2018-05-25T09:06:55.856Z,3064.00
2018-05-25T09:07:55.859Z,4740.00
2018-05-25T09:08:55.886Z,5732.00
2018-05-25T09:09:55.912Z,5940.00
2018-05-25T09:10:55.939Z,4852.00
2018-05-25T09:11:55.967Z,5780.00
2018-05-25T09:12:55.993Z,6160.00
2018-05-25T09:13:56.019Z,6108.00
2018-05-25T09:14:56.046Z,6300.00
2018-05-25T09:15:56.074Z,6420.00
2018-05-25T09:16:56.099Z,6420.00
2018-05-25T09:17:56.125Z,6544.00
2018-05-25T09:18:56.155Z,6540.00
2018-05-25T09:19:56.179Z,6472.00
2018-05-25T09:20:56.206Z,6952.00
2018-05-25T09:21:56.305Z,6904.00
2018-05-25T09:22:56.260Z,7188.00
2018-05-25T09:23:56.286Z,7356.00
2018-05-25T09:24:56.313Z,5776.00
2018-05-25T09:25:56.344Z,4880.00
2018-05-25T09:26:56.371Z,5232.00
2018-05-25T09:27:56.395Z,5632.00
2018-05-25T09:28:56.420Z,5820.00
2018-05-25T09:29:56.448Z,6160.00
2018-05-25T09:30:56.514Z,6456.00
2018-05-25T09:31:56.503Z,6756.00
2018-05-25T09:32:56.529Z,6648.00
2018-05-25T09:33:56.556Z,6888.00
2018-05-25T09:34:56.585Z,6848.00
2018-05-25T09:35:56.611Z,6768.00
2018-05-25T09:36:56.640Z,6540.00
2018-05-25T09:37:56.664Z,6408.00
2018-05-25T09:38:56.691Z,6300.00
2018-05-25T09:39:56.720Z,6128.00
2018-05-25T09:40:56.745Z,5860.00
2018-05-25T09:41:56.773Z,5824.00
2018-05-25T09:42:56.801Z,5748.00
2018-05-25T09:43:56.826Z,5760.00
2018-05-25T09:44:56.854Z,5780.00
2018-05-25T09:45:56.880Z,5736.00
2018-05-25T09:46:57.409Z,5684.00
2018-05-25T09:47:56.935Z,5772.00
2018-05-25T09:48:57.026Z,5748.00
2018-05-25T09:49:56.989Z,5640.00
2018-05-25T09:50:57.017Z,5644.00
2018-05-25T09:51:57.047Z,5652.00
2018-05-25T09:52:57.071Z,5704.00
2018-05-25T09:53:57.101Z,5692.00
2018-05-25T09:54:57.126Z,5676.00
2018-05-25T09:55:57.153Z,5656.00
2018-05-25T09:56:57.180Z,5648.00
2018-05-25T09:57:57.208Z,5740.00
2018-05-25T09:58:57.235Z,5860.00
2018-05-25T09:59:57.262Z,5876.00
2018-05-25T10:00:57.288Z,5836.00
2018-05-25T10:01:57.448Z,5796.00
2018-05-25T10:02:57.343Z,5752.00
2018-05-25T10:03:57.370Z,6136.00
2018-05-25T10:04:57.403Z,6112.00
2018-05-25T10:05:57.426Z,5776.00
2018-05-25T10:06:57.451Z,3876.00
2018-05-25T10:07:57.479Z,5560.00
2018-05-25T10:08:57.506Z,6004.00
2018-05-25T10:09:57.534Z,6528.00
2018-05-25T10:10:57.560Z,6812.00
2018-05-25T10:11:57.590Z,6632.00
2018-05-25T10:12:57.614Z,4360.00
2018-05-25T10:13:57.642Z,3944.00
2018-05-25T10:14:57.670Z,4056.00
2018-05-25T10:15:57.699Z,6544.00
2018-05-25T10:16:57.727Z,6832.00
2018-05-25T10:17:57.788Z,7740.00
2018-05-25T10:18:57.781Z,7704.00
2018-05-25T10:19:57.808Z,7236.00
2018-05-25T10:20:57.835Z,6884.00
2018-05-25T10:21:57.863Z,6728.00
2018-05-25T10:22:57.892Z,6688.00
2018-05-25T10:23:57.918Z,6856.00
2018-05-25T10:24:57.948Z,7368.00
2018-05-25T10:25:57.973Z,8336.00
2018-05-25T10:26:58.000Z,8608.00
2018-05-25T10:27:58.029Z,8700.00
2018-05-25T10:28:58.055Z,8868.00
2018-05-25T10:29:58.085Z,9128.00
2018-05-25T10:30:58.111Z,8064.00
2018-05-25T10:31:58.140Z,7752.00
2018-05-25T10:32:58.167Z,7428.00
2018-05-25T10:33:58.196Z,7168.00
2018-05-25T10:34:58.227Z,6980.00
2018-05-25T10:35:58.253Z,6912.00
2018-05-25T10:36:58.279Z,6760.00
2018-05-25T10:37:58.308Z,6992.00
2018-05-25T10:38:58.335Z,6944.00
2018-05-25T10:39:58.364Z,6256.00
2018-05-25T10:40:58.432Z,6464.00
2018-05-25T10:41:58.420Z,6292.00
2018-05-25T10:42:58.448Z,7104.00
2018-05-25T10:43:58.476Z,7204.00
2018-05-25T10:44:58.502Z,6912.00
2018-05-25T10:45:58.531Z,7324.00
2018-05-25T10:46:58.559Z,6292.00
2018-05-25T10:47:58.588Z,6020.00
2018-05-25T10:48:58.615Z,6088.00
2018-05-25T10:49:58.644Z,5520.00
2018-05-25T10:50:58.722Z,4676.00
2018-05-25T10:51:58.699Z,4200.00
2018-05-25T10:52:58.726Z,6328.00
2018-05-25T10:53:58.754Z,4200.00
2018-05-25T10:54:58.785Z,4308.00
2018-05-25T10:55:58.845Z,5032.00
2018-05-25T10:56:58.839Z,6896.00
2018-05-25T10:57:58.867Z,7496.00
2018-05-25T10:58:58.896Z,7600.00
2018-05-25T10:59:58.924Z,8104.00
2018-05-25T11:00:58.957Z,5864.00
2018-05-25T11:01:58.979Z,8116.00
2018-05-25T11:02:59.008Z,8488.00
2018-05-25T11:03:59.036Z,8492.00
2018-05-25T11:04:59.062Z,8168.00
2018-05-25T11:05:59.092Z,7552.00
2018-05-25T11:06:59.121Z,7060.00
2018-05-25T11:07:59.199Z,7000.00
2018-05-25T11:08:59.176Z,6476.00
2018-05-25T11:09:59.211Z,6308.00
2018-05-25T11:10:59.232Z,6320.00
2018-05-25T11:11:59.261Z,6428.00
2018-05-25T11:12:59.338Z,6416.00
2018-05-25T11:13:59.318Z,6348.00
2018-05-25T11:14:59.345Z,6384.00
2018-05-25T11:15:59.376Z,6444.00
2018-05-25T11:16:59.404Z,6440.00
2018-05-25T11:17:59.431Z,6436.00
2018-05-25T11:18:59.459Z,6508.00
2018-05-25T11:19:59.490Z,6004.00
2018-05-25T11:20:59.568Z,6176.00
2018-05-25T11:21:59.547Z,5856.00
2018-05-25T11:22:59.580Z,6940.00
2018-05-25T11:23:59.602Z,4940.00
2018-05-25T11:24:59.635Z,4868.00
2018-05-25T11:25:59.659Z,4708.00
2018-05-25T11:26:59.688Z,5932.00
2018-05-25T11:27:59.714Z,4268.00
2018-05-25T11:28:59.741Z,3764.00
2018-05-25T11:29:59.769Z,3716.00
2018-05-25T11:30:59.807Z,3680.00
2018-05-25T11:31:59.826Z,3716.00
2018-05-25T11:32:59.855Z,4924.00
2018-05-25T11:33:59.881Z,5940.00
2018-05-25T11:34:59.910Z,5824.00
2018-05-25T11:35:59.939Z,5448.00
2018-05-25T11:36:59.967Z,5708.00
2018-05-25T11:37:59.994Z,5840.00
2018-05-25T11:39:00.023Z,5240.00
2018-05-25T11:40:00.051Z,6420.00
2018-05-25T11:41:00.078Z,7176.00
2018-05-25T11:42:00.106Z,7528.00
2018-05-25T11:43:00.135Z,7648.00
2018-05-25T11:44:00.164Z,6616.00
2018-05-25T11:45:00.190Z,7300.00
2018-05-25T11:46:00.218Z,5808.00
2018-05-25T11:47:00.246Z,5800.00
2018-05-25T11:48:00.276Z,5980.00
2018-05-25T11:49:00.302Z,6284.00
2018-05-25T11:50:00.331Z,6612.00
2018-05-25T11:51:00.364Z,7228.00
2018-05-25T11:52:00.388Z,7552.00
2018-05-25T11:53:00.465Z,7172.00
2018-05-25T11:54:00.443Z,6832.00
2018-05-25T11:55:00.474Z,6284.00
2018-05-25T11:56:00.500Z,5772.00
2018-05-25T11:57:00.527Z,5252.00
2018-05-25T11:58:00.557Z,4860.00
2018-05-25T11:59:00.583Z,4448.00
2018-05-25T12:00:00.614Z,4196.00
2018-05-25T12:01:00.641Z,4180.00
2018-05-25T12:02:00.739Z,4292.00
2018-05-25T12:03:00.696Z,4320.00
2018-05-25T12:04:00.725Z,4404.00
2018-05-25T12:05:00.752Z,4484.00
2018-05-25T12:06:00.780Z,4420.00
2018-05-25T12:07:00.808Z,4332.00
2018-05-25T12:08:00.836Z,4220.00
2018-05-25T12:09:00.866Z,4408.00
2018-05-25T12:10:00.893Z,5588.00
2018-05-25T12:11:00.921Z,5012.00
2018-05-25T12:12:00.949Z,5368.00
2018-05-25T12:13:01.026Z,5100.00
2018-05-25T12:14:01.003Z,5876.00
2018-05-25T12:15:01.036Z,6784.00
2018-05-25T12:16:01.060Z,6764.00
2018-05-25T12:17:01.087Z,6768.00
2018-05-25T12:18:01.114Z,6812.00
2018-05-25T12:19:01.143Z,7176.00
2018-05-25T12:20:01.170Z,7196.00
2018-05-25T12:21:01.198Z,7628.00
2018-05-25T12:22:01.226Z,7740.00
2018-05-25T12:23:01.254Z,7736.00
2018-05-25T12:24:01.285Z,7596.00
2018-05-25T12:25:01.311Z,7512.00
2018-05-25T12:26:01.340Z,5600.00
2018-05-25T12:27:01.369Z,5556.00